createdAt,value
2023-04-16T00:00:42.720Z,4.28
2023-04-16T00:04:24.625Z,3.80
2023-04-16T00:08:06.596Z,4.22
2023-04-16T00:11:48.389Z,3.45
2023-04-16T00:15:30.409Z,3.55
2023-04-16T00:19:12.347Z,3.65
2023-04-16T00:22:54.123Z,4.07
2023-04-16T00:26:36.030Z,3.33
2023-04-16T00:30:17.809Z,3.58
2023-04-16T00:34:00.383Z,3.05
2023-04-16T00:37:42.488Z,3.60
2023-04-16T00:41:24.318Z,3.72
2023-04-16T00:45:06.560Z,3.08
2023-04-16T00:48:51.054Z,3.30
2023-04-16T00:52:33.413Z,3.95
2023-04-16T00:56:17.475Z,3.70
2023-04-16T00:59:59.960Z,3.80
2023-04-16T01:03:47.158Z,4.03
2023-04-16T01:07:29.089Z,3.78
2023-04-16T01:11:12.115Z,3.20
2023-04-16T01:14:53.904Z,3.67
2023-04-16T01:18:36.756Z,3.47
2023-04-16T01:22:18.572Z,3.97
2023-04-16T01:26:00.566Z,4.50
2023-04-16T01:29:42.357Z,3.83
2023-04-16T01:33:24.216Z,3.10
2023-04-16T01:37:06.163Z,3.60
2023-04-16T01:40:47.896Z,3.65
2023-04-16T01:44:30.950Z,4.60
2023-04-16T01:48:12.884Z,3.78
2023-04-16T01:51:54.620Z,3.30
2023-04-16T01:55:36.417Z,3.55
2023-04-16T01:59:18.528Z,3.88
2023-04-16T02:03:00.570Z,3.90
2023-04-16T02:06:42.428Z,3.58
2023-04-16T02:10:24.205Z,4.07
2023-04-16T02:14:06.083Z,3.33
2023-04-16T02:17:48.922Z,3.05
2023-04-16T02:21:31.861Z,3.78
2023-04-16T02:25:14.316Z,3.20
2023-04-16T02:28:56.157Z,3.38
2023-04-16T02:32:37.930Z,3.88
2023-04-16T02:36:20.029Z,2.60
2023-04-16T02:40:01.842Z,3.47
2023-04-16T02:43:43.610Z,3.20
2023-04-16T02:47:25.388Z,3.30
2023-04-16T02:51:07.227Z,3.03
2023-04-16T02:54:49.047Z,3.20
2023-04-16T02:58:30.822Z,3.60
2023-04-16T03:02:13.931Z,3.03
2023-04-16T03:05:55.748Z,3.28
2023-04-16T03:09:37.511Z,3.58
2023-04-16T03:13:19.222Z,2.90
2023-04-16T03:17:01.559Z,3.10
2023-04-16T03:20:43.385Z,2.92
2023-04-16T03:24:25.135Z,3.35
2023-04-16T03:28:06.891Z,2.95
2023-04-16T03:31:48.623Z,3.10
2023-04-16T03:35:30.463Z,3.55
2023-04-16T03:39:12.333Z,3.03
2023-04-16T03:42:54.098Z,3.10
2023-04-16T03:46:36.076Z,3.28
2023-04-16T03:50:19.033Z,3.45
2023-04-16T03:54:00.760Z,3.40
2023-04-16T03:57:42.523Z,3.58
2023-04-16T04:01:24.288Z,3.40
2023-04-16T04:05:06.393Z,2.90
2023-04-16T04:08:48.196Z,3.42
2023-04-16T04:12:29.895Z,3.08
2023-04-16T04:16:11.783Z,3.42
2023-04-16T04:20:00.968Z,3.15
2023-04-16T04:23:43.763Z,3.08
2023-04-16T04:27:25.623Z,3.03
2023-04-16T04:31:07.477Z,3.72
2023-04-16T04:34:49.201Z,2.75
2023-04-16T04:38:31.359Z,3.15
2023-04-16T04:42:13.116Z,4.05
2023-04-16T04:45:54.964Z,2.70
2023-04-16T04:49:36.789Z,2.97
2023-04-16T04:53:18.556Z,2.90
2023-04-16T04:57:00.309Z,2.72
2023-04-16T05:00:42.950Z,2.85
2023-04-16T05:04:24.706Z,2.70
2023-04-16T05:08:06.591Z,2.78
2023-04-16T05:11:48.309Z,2.85
2023-04-16T05:15:30.367Z,3.03
2023-04-16T05:19:12.289Z,4.40
2023-04-16T05:22:55.407Z,3.13
2023-04-16T05:26:37.168Z,3.17
2023-04-16T05:30:19.143Z,3.33
2023-04-16T05:34:01.231Z,3.70
2023-04-16T05:37:43.192Z,3.40
2023-04-16T05:41:25.076Z,3.20
2023-04-16T05:45:07.357Z,3.28
2023-04-16T05:48:49.051Z,3.20
2023-04-16T05:52:30.800Z,3.10
2023-04-16T05:56:12.539Z,3.58
2023-04-16T05:59:54.328Z,3.03
2023-04-16T06:03:36.161Z,3.60
2023-04-16T06:07:17.995Z,3.75
2023-04-16T06:10:59.914Z,3.10
2023-04-16T06:14:41.746Z,3.47
2023-04-16T06:18:23.781Z,3.67
2023-04-16T06:22:06.573Z,3.47
2023-04-16T06:25:48.271Z,3.67
2023-04-16T06:29:40.505Z,3.10
2023-04-16T06:33:23.512Z,3.60
2023-04-16T06:37:05.312Z,3.47
2023-04-16T06:40:48.344Z,3.33
2023-04-16T06:44:30.211Z,3.20
2023-04-16T06:48:11.996Z,3.15
2023-04-16T06:51:54.106Z,3.40
2023-04-16T06:55:35.927Z,3.25
2023-04-16T06:59:17.712Z,3.75
2023-04-16T07:03:01.700Z,2.75
2023-04-16T07:06:43.822Z,3.20
2023-04-16T07:10:25.755Z,2.90
2023-04-16T07:14:07.869Z,2.92
2023-04-16T07:17:49.718Z,2.83
2023-04-16T07:21:31.887Z,2.75
2023-04-16T07:25:13.717Z,3.13
2023-04-16T07:28:55.513Z,2.88
2023-04-16T07:32:37.404Z,3.22
2023-04-16T07:36:19.183Z,3.15
2023-04-16T07:40:01.040Z,3.08
2023-04-16T07:43:42.811Z,2.45
2023-04-16T07:47:26.464Z,2.85
2023-04-16T07:51:08.279Z,2.15
2023-04-16T07:54:51.736Z,2.25
2023-04-16T07:58:33.519Z,2.03
2023-04-16T08:02:16.878Z,2.30
2023-04-16T08:05:58.996Z,2.05
2023-04-16T08:09:51.714Z,1.50
2023-04-16T08:13:33.742Z,1.70
2023-04-16T08:17:16.165Z,2.22
2023-04-16T08:20:57.980Z,1.85
2023-04-16T08:24:40.157Z,1.70
2023-04-16T08:28:21.925Z,1.77
2023-04-16T08:32:03.788Z,1.90
2023-04-16T08:35:45.948Z,2.45
2023-04-16T08:39:27.658Z,2.40
2023-04-16T08:43:14.763Z,1.67
2023-04-16T08:46:58.256Z,1.30
2023-04-16T08:50:41.921Z,1.60
2023-04-16T08:54:32.306Z,1.50
2023-04-16T08:58:15.453Z,1.30
2023-04-16T09:01:59.592Z,1.83
2023-04-16T09:05:43.039Z,1.20
2023-04-16T09:09:26.661Z,1.58
2023-04-16T09:13:11.731Z,1.20
2023-04-16T09:16:55.793Z,1.70
2023-04-16T09:20:37.961Z,1.35
2023-04-16T09:24:19.844Z,1.33
2023-04-16T09:28:01.856Z,1.38
2023-04-16T09:32:05.615Z,1.48
2023-04-16T09:35:54.284Z,0.98
2023-04-16T09:39:36.381Z,1.15
2023-04-16T09:43:19.068Z,0.95
2023-04-16T09:47:09.234Z,1.55
2023-04-16T09:50:51.617Z,1.00
2023-04-16T09:54:33.360Z,1.02
2023-04-16T09:58:19.325Z,0.90
2023-04-16T10:02:15.392Z,1.13
2023-04-16T10:06:08.230Z,1.00
2023-04-16T10:09:50.649Z,1.25
2023-04-16T10:13:32.539Z,1.33
2023-04-16T10:17:15.310Z,0.80
2023-04-16T10:20:57.973Z,0.65
2023-04-16T10:24:41.876Z,0.93
2023-04-16T10:28:25.108Z,1.08
2023-04-16T10:32:07.904Z,1.10
2023-04-16T10:36:07.760Z,1.00
2023-04-16T10:39:53.093Z,1.10
2023-04-16T10:43:49.574Z,1.00
2023-04-16T10:47:31.762Z,0.98
2023-04-16T10:51:33.572Z,1.10
2023-04-16T10:55:18.320Z,0.93
2023-04-16T10:59:00.107Z,1.00
2023-04-16T11:02:42.049Z,0.95
2023-04-16T11:06:28.311Z,1.48
2023-04-16T11:10:13.639Z,0.83
2023-04-16T11:13:56.978Z,1.25
2023-04-16T11:17:40.099Z,1.08
2023-04-16T11:21:22.468Z,1.40
2023-04-16T11:25:04.538Z,0.73
2023-04-16T11:28:46.394Z,1.60
2023-04-16T11:32:31.189Z,1.30
2023-04-16T11:36:12.997Z,1.35
2023-04-16T11:39:54.730Z,1.05
2023-04-16T11:43:36.922Z,1.15
2023-04-16T11:47:18.741Z,1.00
2023-04-16T11:51:00.614Z,0.90
2023-04-16T11:54:42.382Z,0.80
2023-04-16T11:58:24.333Z,1.30
2023-04-16T12:02:06.545Z,0.95
2023-04-16T12:05:48.311Z,1.73
2023-04-16T12:09:30.061Z,0.70
2023-04-16T12:13:16.371Z,1.27
2023-04-16T12:17:18.245Z,1.27
2023-04-16T12:21:04.461Z,1.25
2023-04-16T12:24:46.205Z,1.58
2023-04-16T12:28:34.928Z,1.15
2023-04-16T12:32:23.483Z,1.45
2023-04-16T12:36:26.248Z,1.00
2023-04-16T12:40:08.703Z,0.93
2023-04-16T12:43:50.618Z,0.90
2023-04-16T12:47:33.164Z,1.67
2023-04-16T12:51:15.310Z,1.23
2023-04-16T12:54:57.220Z,1.38
2023-04-16T12:58:38.955Z,1.00
2023-04-16T13:02:20.920Z,1.38
2023-04-16T13:06:03.503Z,1.10
2023-04-16T13:09:46.634Z,1.25
2023-04-16T13:13:29.620Z,1.13
2023-04-16T13:17:11.529Z,1.30
2023-04-16T13:20:54.009Z,1.48
2023-04-16T13:24:35.898Z,1.50
2023-04-16T13:28:17.683Z,1.00
2023-04-16T13:31:59.473Z,1.50
2023-04-16T13:35:41.257Z,1.52
2023-04-16T13:39:23.121Z,1.75
2023-04-16T13:43:05.986Z,1.50
2023-04-16T13:46:49.735Z,1.48
2023-04-16T13:50:31.743Z,1.50
2023-04-16T13:54:13.492Z,1.48
2023-04-16T13:57:56.389Z,1.30
2023-04-16T14:01:38.336Z,1.58
2023-04-16T14:05:20.140Z,1.83
2023-04-16T14:09:02.126Z,1.38
2023-04-16T14:12:45.280Z,1.77
2023-04-16T14:16:27.606Z,1.85
2023-04-16T14:20:13.075Z,1.75
2023-04-16T14:23:54.839Z,1.50
2023-04-16T14:27:36.686Z,1.40
2023-04-16T14:31:19.873Z,1.10
2023-04-16T14:35:01.799Z,0.77
2023-04-16T14:38:43.873Z,1.15
2023-04-16T14:42:26.328Z,1.25
2023-04-16T14:46:08.305Z,1.13
2023-04-16T14:49:50.259Z,1.30
2023-04-16T14:53:32.155Z,1.27
2023-04-16T14:57:14.281Z,1.20
2023-04-16T15:00:56.350Z,1.60
2023-04-16T15:04:38.442Z,1.08
2023-04-16T15:08:20.243Z,1.20
2023-04-16T15:12:02.048Z,0.82
2023-04-16T15:15:43.905Z,1.23
2023-04-16T15:19:26.075Z,1.63
2023-04-16T15:23:07.953Z,0.70
2023-04-16T15:26:49.752Z,1.10
2023-04-16T15:30:31.608Z,0.95
2023-04-16T15:34:13.505Z,0.70
2023-04-16T15:37:55.423Z,1.00
2023-04-16T15:41:50.199Z,1.08
2023-04-16T15:45:41.365Z,1.20
2023-04-16T15:49:24.721Z,1.05
2023-04-16T15:53:06.558Z,0.98
2023-04-16T15:56:48.573Z,1.10
2023-04-16T16:00:30.552Z,0.85
2023-04-16T16:04:12.470Z,0.85
2023-04-16T16:07:54.289Z,1.08
2023-04-16T16:11:38.996Z,0.80
2023-04-16T16:15:20.970Z,0.55
2023-04-16T16:19:02.835Z,0.70
2023-04-16T16:22:46.809Z,0.95
2023-04-16T16:26:29.033Z,0.80
2023-04-16T16:30:11.272Z,0.70
2023-04-16T16:33:53.013Z,0.65
2023-04-16T16:37:35.633Z,0.60
2023-04-16T16:41:17.634Z,0.90
2023-04-16T16:44:59.413Z,1.15
2023-04-16T16:48:41.221Z,1.17
2023-04-16T16:52:24.081Z,0.90
2023-04-16T16:56:06.207Z,1.08
2023-04-16T16:59:48.617Z,0.85
2023-04-16T17:03:30.515Z,1.00
2023-04-16T17:07:15.278Z,1.00
2023-04-16T17:10:57.122Z,1.75
2023-04-16T17:14:39.493Z,0.90
2023-04-16T17:18:21.322Z,1.40
2023-04-16T17:22:03.363Z,1.10
2023-04-16T17:25:45.312Z,1.00
2023-04-16T17:29:27.049Z,1.00
2023-04-16T17:33:08.952Z,0.88
2023-04-16T17:36:50.776Z,1.52
2023-04-16T17:40:32.547Z,0.70
2023-04-16T17:44:14.504Z,1.15
2023-04-16T17:47:56.489Z,1.00
2023-04-16T17:51:38.311Z,0.93
2023-04-16T17:55:20.196Z,1.35
2023-04-16T17:59:02.186Z,1.25
2023-04-16T18:02:44.256Z,1.20
2023-04-16T18:06:27.575Z,0.75
2023-04-16T18:10:09.948Z,0.95
2023-04-16T18:13:53.784Z,1.25
2023-04-16T18:17:35.708Z,1.25
2023-04-16T18:21:17.515Z,1.55
2023-04-16T18:24:59.474Z,1.08
2023-04-16T18:28:41.653Z,1.20
2023-04-16T18:32:24.469Z,1.20
2023-04-16T18:36:06.650Z,1.15
2023-04-16T18:39:48.653Z,1.30
2023-04-16T18:43:31.084Z,1.10
2023-04-16T18:47:12.893Z,1.38
2023-04-16T18:50:54.806Z,1.95
2023-04-16T18:54:36.726Z,1.30
2023-04-16T18:58:18.429Z,1.20
2023-04-16T19:02:00.310Z,1.30
2023-04-16T19:05:42.042Z,1.48
2023-04-16T19:09:25.359Z,1.95
2023-04-16T19:13:07.146Z,2.17
2023-04-16T19:16:48.896Z,2.70
2023-04-16T19:20:33.436Z,3.03
2023-04-16T19:24:15.263Z,3.00
2023-04-16T19:27:57.125Z,2.50
2023-04-16T19:31:38.949Z,2.03
2023-04-16T19:35:20.668Z,2.90
2023-04-16T19:39:02.410Z,3.00
2023-04-16T19:42:45.397Z,3.25
2023-04-16T19:46:27.313Z,2.95
2023-04-16T19:50:09.513Z,2.38
2023-04-16T19:53:51.964Z,2.65
2023-04-16T19:57:33.862Z,2.80
2023-04-16T20:01:15.709Z,2.92
2023-04-16T20:04:57.511Z,2.65
2023-04-16T20:08:39.279Z,3.80
2023-04-16T20:12:21.178Z,3.25
2023-04-16T20:16:04.072Z,3.45
2023-04-16T20:19:47.464Z,3.53
2023-04-16T20:23:29.268Z,3.67
2023-04-16T20:27:11.020Z,3.45
2023-04-16T20:30:52.926Z,2.90
2023-04-16T20:34:34.723Z,4.00
2023-04-16T20:38:18.269Z,3.20
2023-04-16T20:42:00.916Z,3.83
2023-04-16T20:45:46.176Z,2.58
2023-04-16T20:49:27.951Z,3.17
2023-04-16T20:53:09.715Z,2.35
2023-04-16T20:56:51.515Z,2.60
2023-04-16T21:00:33.328Z,2.70
2023-04-16T21:04:15.128Z,2.40
2023-04-16T21:07:56.917Z,2.92
2023-04-16T21:11:38.688Z,2.63
2023-04-16T21:19:19.676Z,2.13
2023-04-16T21:23:05.180Z,2.10
2023-04-16T21:26:46.899Z,2.05
2023-04-16T21:30:28.731Z,1.58
2023-04-16T21:34:10.654Z,2.35
2023-04-16T21:37:52.442Z,1.88
2023-04-16T21:41:34.478Z,1.80
2023-04-16T21:45:17.970Z,2.63
2023-04-16T21:48:59.749Z,3.08
2023-04-16T21:52:46.298Z,2.55
2023-04-16T21:56:28.040Z,3.00
2023-04-16T22:00:13.907Z,2.55
2023-04-16T22:03:55.845Z,2.80
2023-04-16T22:07:37.844Z,2.75
2023-04-16T22:11:19.582Z,1.83
2023-04-16T22:15:03.139Z,2.13
2023-04-16T22:18:46.319Z,2.42
2023-04-16T22:22:28.187Z,2.08
2023-04-16T22:26:10.178Z,2.10
2023-04-16T22:29:52.044Z,2.08
2023-04-16T22:33:33.853Z,1.60
2023-04-16T22:37:15.950Z,1.70
2023-04-16T22:40:57.718Z,2.38
2023-04-16T22:44:39.714Z,1.73
2023-04-16T22:48:21.423Z,1.60
2023-04-16T22:52:03.255Z,1.30
2023-04-16T22:55:45.021Z,1.58
2023-04-16T22:59:26.812Z,1.40
2023-04-16T23:03:09.041Z,1.80
2023-04-16T23:06:51.468Z,1.83
2023-04-16T23:10:33.249Z,1.90
2023-04-16T23:14:16.828Z,1.83
2023-04-16T23:17:58.775Z,1.45
2023-04-16T23:21:41.451Z,1.92
2023-04-16T23:25:23.629Z,1.55
2023-04-16T23:29:05.413Z,1.58
2023-04-16T23:32:47.141Z,1.77
2023-04-16T23:36:28.910Z,1.52
2023-04-16T23:40:11.034Z,1.60
2023-04-16T23:43:52.760Z,1.50
2023-04-16T23:47:34.532Z,2.22
2023-04-16T23:51:16.357Z,1.50
2023-04-16T23:54:58.094Z,1.73
2023-04-16T23:58:39.842Z,1.33
